createdAt,value
2018-05-15T00:00:00.262Z,1000.5
2018-05-15T00:01:01.661Z,1000.5
2018-05-15T00:02:03.051Z,1000.6
2018-05-15T00:03:04.446Z,1000.5
2018-05-15T00:04:05.840Z,1000.5
2018-05-15T00:05:07.239Z,1000.5
2018-05-15T00:06:08.631Z,1000.5
2018-05-15T00:07:10.023Z,1000.6
2018-05-15T00:08:11.422Z,1000.5
2018-05-15T00:09:12.828Z,1000.5
2018-05-15T00:10:14.223Z,1000.5
2018-05-15T00:11:15.621Z,1000.5
2018-05-15T00:12:17.023Z,1000.6
2018-05-15T00:13:18.417Z,1000.6
2018-05-15T00:14:19.809Z,1000.6
2018-05-15T00:15:21.213Z,1000.6
2018-05-15T00:16:22.601Z,1000.6
2018-05-15T00:17:23.995Z,1000.6
2018-05-15T00:18:25.388Z,1000.6
2018-05-15T00:19:26.786Z,1000.6
2018-05-15T00:20:28.181Z,1000.6
2018-05-15T00:21:29.574Z,1000.6
2018-05-15T00:22:30.970Z,1000.7
2018-05-15T00:23:32.386Z,1000.7
2018-05-15T00:24:33.779Z,1000.7
2018-05-15T00:25:35.175Z,1000.6
2018-05-15T00:26:36.583Z,1000.7
2018-05-15T00:27:37.958Z,1000.7
2018-05-15T00:28:39.352Z,1000.7
2018-05-15T00:29:40.765Z,1000.6
2018-05-15T00:30:42.156Z,1000.7
2018-05-15T00:31:43.555Z,1000.6
2018-05-15T00:32:44.951Z,1000.6
2018-05-15T00:33:46.356Z,1000.6
2018-05-15T00:34:47.742Z,1000.6
2018-05-15T00:35:49.139Z,1000.6
2018-05-15T00:36:50.534Z,1000.6
2018-05-15T00:37:51.928Z,1000.6
2018-05-15T00:38:53.323Z,1000.7
2018-05-15T00:39:54.718Z,1000.6
2018-05-15T00:40:56.113Z,1000.6
2018-05-15T00:41:57.500Z,1000.7
2018-05-15T00:42:58.892Z,1000.7
2018-05-15T00:44:00.291Z,1000.7
2018-05-15T00:45:01.690Z,1000.7
2018-05-15T00:46:03.082Z,1000.7
2018-05-15T00:47:04.492Z,1000.7
2018-05-15T00:48:05.883Z,1000.7
2018-05-15T00:49:07.279Z,1000.7
2018-05-15T00:50:08.668Z,1000.7
2018-05-15T00:51:10.062Z,1000.7
2018-05-15T00:52:11.458Z,1000.7
2018-05-15T00:53:12.849Z,1000.7
2018-05-15T00:54:14.243Z,1000.6
2018-05-15T00:55:15.639Z,1000.7
2018-05-15T00:56:17.035Z,1000.6
2018-05-15T00:57:18.424Z,1000.6
2018-05-15T00:58:19.821Z,1000.6
2018-05-15T00:59:21.211Z,1000.6
2018-05-15T01:00:22.612Z,1000.6
2018-05-15T01:01:24.005Z,1000.6
2018-05-15T01:02:25.401Z,1000.6
2018-05-15T01:03:26.793Z,1000.6
2018-05-15T01:04:28.192Z,1000.6
2018-05-15T01:05:29.584Z,1000.6
2018-05-15T01:06:30.977Z,1000.6
2018-05-15T01:07:32.372Z,1000.7
2018-05-15T01:08:33.766Z,1000.7
2018-05-15T01:09:35.168Z,1000.6
2018-05-15T01:10:36.557Z,1000.7
2018-05-15T01:11:37.946Z,1000.7
2018-05-15T01:12:39.341Z,1000.7
2018-05-15T01:13:40.733Z,1000.7
2018-05-15T01:14:42.128Z,1000.7
2018-05-15T01:15:43.523Z,1000.6
2018-05-15T01:16:44.918Z,1000.6
2018-05-15T01:17:46.387Z,1000.7
2018-05-15T01:18:47.808Z,1000.6
2018-05-15T01:19:49.201Z,1000.6
2018-05-15T01:20:50.596Z,1000.6
2018-05-15T01:21:51.995Z,1000.6
2018-05-15T01:22:53.393Z,1000.6
2018-05-15T01:23:54.785Z,1000.6
2018-05-15T01:24:56.182Z,1000.6
2018-05-15T01:25:57.570Z,1000.6
2018-05-15T01:26:58.967Z,1000.6
2018-05-15T01:28:00.364Z,1000.6
2018-05-15T01:29:01.763Z,1000.6
2018-05-15T01:30:03.154Z,1000.6
2018-05-15T01:31:04.546Z,1000.6
2018-05-15T01:32:05.942Z,1000.6
2018-05-15T01:33:07.333Z,1000.6
2018-05-15T01:34:08.726Z,1000.6
2018-05-15T01:35:10.114Z,1000.6
2018-05-15T01:36:11.513Z,1000.6
2018-05-15T01:37:12.911Z,1000.6
2018-05-15T01:38:14.303Z,1000.7
2018-05-15T01:39:15.703Z,1000.7
2018-05-15T01:40:17.095Z,1000.6
2018-05-15T01:41:18.486Z,1000.6
2018-05-15T01:42:19.880Z,1000.7
2018-05-15T01:43:21.276Z,1000.6
2018-05-15T01:44:22.668Z,1000.6
2018-05-15T01:45:24.064Z,1000.7
2018-05-15T01:46:25.454Z,1000.7
2018-05-15T01:47:26.853Z,1000.7
2018-05-15T01:48:28.230Z,1000.7
2018-05-15T01:49:29.622Z,1000.7
2018-05-15T01:50:31.014Z,1000.7
2018-05-15T01:51:32.412Z,1000.7
2018-05-15T01:52:33.806Z,1000.7
2018-05-15T01:53:35.211Z,1000.7
2018-05-15T01:54:36.593Z,1000.7
2018-05-15T01:55:37.984Z,1000.7
2018-05-15T01:56:39.379Z,1000.7
2018-05-15T01:57:40.777Z,1000.7
2018-05-15T01:58:42.176Z,1000.7
2018-05-15T01:59:43.563Z,1000.7
2018-05-15T02:00:44.964Z,1000.7
2018-05-15T02:01:46.358Z,1000.7
2018-05-15T02:02:47.769Z,1000.7
2018-05-15T02:03:49.166Z,1000.7
2018-05-15T02:04:50.556Z,1000.7
2018-05-15T02:05:52.035Z,1000.7
2018-05-15T02:06:53.447Z,1000.7
2018-05-15T02:07:54.842Z,1000.7
2018-05-15T02:08:56.232Z,1000.7
2018-05-15T02:09:57.637Z,1000.7
2018-05-15T02:10:59.030Z,1000.7
2018-05-15T02:12:00.422Z,1000.7
2018-05-15T02:13:01.819Z,1000.7
2018-05-15T02:14:03.212Z,1000.7
2018-05-15T02:15:04.604Z,1000.7
2018-05-15T02:16:06.001Z,1000.7
2018-05-15T02:17:07.386Z,1000.7
2018-05-15T02:18:08.778Z,1000.7
2018-05-15T02:19:10.171Z,1000.7
2018-05-15T02:20:11.567Z,1000.7
2018-05-15T02:21:12.960Z,1000.7
2018-05-15T02:22:14.354Z,1000.7
2018-05-15T02:23:15.743Z,1000.7
2018-05-15T02:24:17.144Z,1000.7
2018-05-15T02:25:18.536Z,1000.7
2018-05-15T02:26:19.932Z,1000.7
2018-05-15T02:27:21.326Z,1000.7
2018-05-15T02:28:22.726Z,1000.7
2018-05-15T02:29:24.118Z,1000.7
2018-05-15T02:30:25.585Z,1000.7
2018-05-15T02:31:26.913Z,1000.7
2018-05-15T02:32:28.307Z,1000.7
2018-05-15T02:33:29.704Z,1000.7
2018-05-15T02:34:31.097Z,1000.7
2018-05-15T02:35:32.487Z,1000.7
2018-05-15T02:36:33.885Z,1000.7
2018-05-15T02:37:35.278Z,1000.7
2018-05-15T02:38:36.670Z,1000.7
2018-05-15T02:39:38.063Z,1000.8
2018-05-15T02:40:39.456Z,1000.8
2018-05-15T02:41:40.929Z,1000.7
2018-05-15T02:42:42.242Z,1000.7
2018-05-15T02:43:43.631Z,1000.7
2018-05-15T02:44:45.023Z,1000.7
2018-05-15T02:45:46.415Z,1000.8
2018-05-15T02:46:47.819Z,1000.8
2018-05-15T02:47:49.202Z,1000.8
2018-05-15T02:48:50.599Z,1000.8
2018-05-15T02:49:51.993Z,1000.9
2018-05-15T02:50:53.386Z,1000.8
2018-05-15T02:51:54.775Z,1000.8
2018-05-15T02:52:56.169Z,1000.8
2018-05-15T02:53:57.619Z,1000.8
2018-05-15T02:54:59.013Z,1000.7
2018-05-15T02:56:00.422Z,1000.8
2018-05-15T02:57:01.825Z,1000.8
2018-05-15T02:58:03.219Z,1000.8
2018-05-15T02:59:04.607Z,1000.8
2018-05-15T03:00:06.001Z,1000.8
2018-05-15T03:01:07.465Z,1000.8
2018-05-15T03:02:08.801Z,1000.8
2018-05-15T03:03:10.188Z,1000.8
2018-05-15T03:04:11.584Z,1000.8
2018-05-15T03:05:12.982Z,1000.7
2018-05-15T03:06:14.369Z,1000.8
2018-05-15T03:07:15.768Z,1000.7
2018-05-15T03:08:17.157Z,1000.7
2018-05-15T03:09:18.548Z,1000.8
2018-05-15T03:10:19.938Z,1000.8
2018-05-15T03:11:21.334Z,1000.8
2018-05-15T03:12:22.729Z,1000.8
2018-05-15T03:13:24.118Z,1000.9
2018-05-15T03:14:25.510Z,1000.8
2018-05-15T03:15:26.902Z,1000.9
2018-05-15T03:16:28.294Z,1000.8
2018-05-15T03:17:29.688Z,1000.9
2018-05-15T03:18:31.086Z,1000.9
2018-05-15T03:19:32.489Z,1000.9
2018-05-15T03:20:33.883Z,1000.9
2018-05-15T03:21:35.268Z,1000.8
2018-05-15T03:22:36.666Z,1000.8
2018-05-15T03:23:38.051Z,1000.9
2018-05-15T03:24:39.445Z,1000.8
2018-05-15T03:25:40.837Z,1000.9
2018-05-15T03:26:42.238Z,1000.9
2018-05-15T03:27:43.622Z,1000.9
2018-05-15T03:28:45.016Z,1001.0
2018-05-15T03:29:46.407Z,1000.9
2018-05-15T03:30:47.799Z,1000.9
2018-05-15T03:31:49.191Z,1000.9
2018-05-15T03:32:50.584Z,1000.9
2018-05-15T03:33:51.977Z,1001.0
2018-05-15T03:34:53.367Z,1001.0
2018-05-15T03:35:54.762Z,1001.0
2018-05-15T03:36:56.152Z,1001.0
2018-05-15T03:37:57.544Z,1001.0
2018-05-15T03:38:58.942Z,1001.0
2018-05-15T03:40:00.331Z,1001.0
2018-05-15T03:41:01.728Z,1001.0
2018-05-15T03:42:03.122Z,1001.0
2018-05-15T03:43:04.595Z,1001.0
2018-05-15T03:44:05.985Z,1001.0
2018-05-15T03:45:07.391Z,1001.0
2018-05-15T03:46:08.780Z,1001.0
2018-05-15T03:47:10.175Z,1001.1
2018-05-15T03:48:11.569Z,1001.1
2018-05-15T03:49:12.958Z,1001.1
2018-05-15T03:50:14.348Z,1001.1
2018-05-15T03:51:15.740Z,1001.1
2018-05-15T03:52:17.133Z,1001.1
2018-05-15T03:53:18.527Z,1001.1
2018-05-15T03:54:19.926Z,1001.1
2018-05-15T03:55:21.322Z,1001.1
2018-05-15T03:56:22.720Z,1001.1
2018-05-15T03:57:24.112Z,1001.1
2018-05-15T03:58:25.503Z,1001.1
2018-05-15T03:59:26.909Z,1001.1
2018-05-15T04:00:28.301Z,1001.1
2018-05-15T04:01:29.699Z,1001.1
2018-05-15T04:02:31.095Z,1001.1
2018-05-15T04:03:32.491Z,1001.2
2018-05-15T04:04:33.890Z,1001.1
2018-05-15T04:05:35.281Z,1001.1
2018-05-15T04:06:36.679Z,1001.1
2018-05-15T04:07:38.074Z,1001.1
2018-05-15T04:08:39.534Z,1001.1
2018-05-15T04:09:40.881Z,1001.1
2018-05-15T04:10:42.271Z,1001.2
2018-05-15T04:11:43.663Z,1001.1
2018-05-15T04:12:45.060Z,1001.2
2018-05-15T04:13:46.455Z,1001.2
2018-05-15T04:14:47.849Z,1001.2
2018-05-15T04:15:49.243Z,1001.2
2018-05-15T04:16:51.550Z,1001.2
2018-05-15T04:17:52.945Z,1001.2
2018-05-15T04:18:54.345Z,1001.2
2018-05-15T04:19:55.738Z,1001.2
2018-05-15T04:20:57.131Z,1001.2
2018-05-15T04:21:58.525Z,1001.2
2018-05-15T04:22:59.924Z,1001.3
2018-05-15T04:24:01.348Z,1001.3
2018-05-15T04:25:02.725Z,1001.3
2018-05-15T04:26:04.120Z,1001.3
2018-05-15T04:27:05.517Z,1001.3
2018-05-15T04:28:06.953Z,1001.3
2018-05-15T04:29:08.309Z,1001.3
2018-05-15T04:30:09.758Z,1001.3
2018-05-15T04:31:11.181Z,1001.3
2018-05-15T04:32:12.575Z,1001.3
2018-05-15T04:33:13.972Z,1001.3
2018-05-15T04:34:15.363Z,1001.3
2018-05-15T04:35:16.780Z,1001.3
2018-05-15T04:36:18.157Z,1001.4
2018-05-15T04:37:19.557Z,1001.3
2018-05-15T04:38:20.951Z,1001.3
2018-05-15T04:39:22.359Z,1001.4
2018-05-15T04:40:23.749Z,1001.4
2018-05-15T04:41:25.146Z,1001.4
2018-05-15T04:42:26.543Z,1001.4
2018-05-15T04:43:27.976Z,1001.4
2018-05-15T04:44:29.336Z,1001.4
2018-05-15T04:45:30.735Z,1001.4
2018-05-15T04:46:32.159Z,1001.4
2018-05-15T04:47:33.571Z,1001.4
2018-05-15T04:48:34.970Z,1001.4
2018-05-15T04:49:36.367Z,1001.4
2018-05-15T04:50:37.776Z,1001.3
2018-05-15T04:51:39.170Z,1001.4
2018-05-15T04:52:40.569Z,1001.4
2018-05-15T04:53:41.963Z,1001.4
2018-05-15T04:54:43.358Z,1001.4
2018-05-15T04:55:44.801Z,1001.4
2018-05-15T04:56:46.153Z,1001.4
2018-05-15T04:57:47.557Z,1001.4
2018-05-15T04:58:48.957Z,1001.4
2018-05-15T04:59:50.365Z,1001.4
2018-05-15T05:00:51.757Z,1001.4
2018-05-15T05:01:53.200Z,1001.4
2018-05-15T05:02:54.551Z,1001.4
2018-05-15T05:03:55.950Z,1001.4
2018-05-15T05:04:57.354Z,1001.4
2018-05-15T05:05:58.757Z,1001.4
2018-05-15T05:07:00.146Z,1001.4
2018-05-15T05:08:01.542Z,1001.5
2018-05-15T05:09:02.939Z,1001.5
2018-05-15T05:10:04.339Z,1001.5
2018-05-15T05:11:05.734Z,1001.6
2018-05-15T05:12:07.131Z,1001.5
2018-05-15T05:13:08.526Z,1001.6
2018-05-15T05:14:09.921Z,1001.5
2018-05-15T05:15:11.316Z,1001.6
2018-05-15T05:16:12.709Z,1001.6
2018-05-15T05:17:14.116Z,1001.6
2018-05-15T05:18:15.619Z,1001.6
2018-05-15T05:19:17.041Z,1001.6
2018-05-15T05:20:18.441Z,1001.6
2018-05-15T05:21:19.832Z,1001.6
2018-05-15T05:22:21.232Z,1001.6
2018-05-15T05:23:22.626Z,1001.6
2018-05-15T05:24:24.023Z,1001.7
2018-05-15T05:25:25.425Z,1001.7
2018-05-15T05:26:26.822Z,1001.7
2018-05-15T05:27:28.223Z,1001.7
2018-05-15T05:28:29.613Z,1001.7
2018-05-15T05:29:31.854Z,1001.7
2018-05-15T05:30:33.256Z,1001.7
2018-05-15T05:31:34.649Z,1001.7
2018-05-15T05:32:36.047Z,1001.7
2018-05-15T05:33:37.442Z,1001.7
2018-05-15T05:34:38.917Z,1001.7
2018-05-15T05:35:40.313Z,1001.7
2018-05-15T05:36:41.711Z,1001.7
2018-05-15T05:37:43.108Z,1001.8
2018-05-15T05:38:44.506Z,1001.7
2018-05-15T05:39:45.904Z,1001.7
2018-05-15T05:40:47.302Z,1001.7
2018-05-15T05:41:48.701Z,1001.7
2018-05-15T05:42:50.095Z,1001.8
2018-05-15T05:43:51.488Z,1001.8
2018-05-15T05:44:52.885Z,1001.8
2018-05-15T05:45:54.279Z,1001.8
2018-05-15T05:46:55.677Z,1001.8
2018-05-15T05:47:57.077Z,1001.9
2018-05-15T05:48:58.472Z,1001.9
2018-05-15T05:49:59.870Z,1001.8
2018-05-15T05:51:01.260Z,1001.8
2018-05-15T05:52:02.762Z,1001.8
2018-05-15T05:53:04.066Z,1001.8
2018-05-15T05:54:05.461Z,1001.8
2018-05-15T05:55:06.859Z,1001.8
2018-05-15T05:56:08.257Z,1001.8
2018-05-15T05:57:09.650Z,1001.8
2018-05-15T05:58:11.047Z,1001.9
2018-05-15T05:59:12.459Z,1001.9
2018-05-15T06:00:13.836Z,1001.9
2018-05-15T06:01:15.245Z,1001.9
2018-05-15T06:02:16.651Z,1001.9
2018-05-15T06:03:18.048Z,1002.0
2018-05-15T06:04:19.472Z,1001.9
2018-05-15T06:05:20.925Z,1001.9
2018-05-15T06:06:22.320Z,1001.9
2018-05-15T06:07:23.731Z,1001.8
2018-05-15T06:08:25.114Z,1001.9
2018-05-15T06:09:26.513Z,1001.9
2018-05-15T06:10:27.931Z,1001.9
2018-05-15T06:11:29.338Z,1002.0
2018-05-15T06:12:30.741Z,1002.0
2018-05-15T06:13:32.139Z,1002.0
2018-05-15T06:14:33.539Z,1002.0
2018-05-15T06:15:34.937Z,1002.0
2018-05-15T06:16:36.336Z,1002.1
2018-05-15T06:17:37.744Z,1002.0
2018-05-15T06:18:39.137Z,1002.1
2018-05-15T06:19:40.532Z,1002.1
2018-05-15T06:20:41.969Z,1002.1
2018-05-15T06:21:43.323Z,1002.1
2018-05-15T06:22:44.727Z,1002.1
2018-05-15T06:23:46.120Z,1002.1
2018-05-15T06:24:47.520Z,1002.1
2018-05-15T06:25:48.917Z,1002.1
2018-05-15T06:26:50.316Z,1002.1
2018-05-15T06:27:51.712Z,1002.0
2018-05-15T06:28:53.117Z,1002.1
2018-05-15T06:29:54.517Z,1002.1
2018-05-15T06:30:55.922Z,1002.1
2018-05-15T06:31:57.324Z,1002.2
2018-05-15T06:32:58.716Z,1002.2
2018-05-15T06:34:00.113Z,1002.1
2018-05-15T06:35:01.510Z,1002.2
2018-05-15T06:36:02.911Z,1002.3
2018-05-15T06:37:04.310Z,1002.2
2018-05-15T06:38:05.709Z,1002.2
2018-05-15T06:39:07.111Z,1002.1
2018-05-15T06:40:08.507Z,1002.1
2018-05-15T06:41:09.905Z,1002.1
2018-05-15T06:42:11.299Z,1002.1
2018-05-15T06:43:12.699Z,1002.1
2018-05-15T06:44:14.099Z,1002.1
2018-05-15T06:45:15.491Z,1002.1
2018-05-15T06:46:16.889Z,1002.1
2018-05-15T06:47:18.290Z,1002.1
2018-05-15T06:48:19.691Z,1002.1
2018-05-15T06:49:21.090Z,1002.1
2018-05-15T06:50:22.505Z,1002.1
2018-05-15T06:51:23.949Z,1002.1
2018-05-15T06:52:25.382Z,1002.1
2018-05-15T06:53:26.782Z,1002.1
2018-05-15T06:54:28.179Z,1002.2
2018-05-15T06:55:29.582Z,1002.1
2018-05-15T06:56:30.981Z,1002.2
2018-05-15T06:57:32.379Z,1002.1
2018-05-15T06:58:33.798Z,1002.1
2018-05-15T06:59:35.198Z,1002.2
2018-05-15T07:00:36.603Z,1002.2
2018-05-15T07:01:38.006Z,1002.2
2018-05-15T07:02:39.404Z,1002.2
2018-05-15T07:03:40.806Z,1002.2
2018-05-15T07:04:42.198Z,1002.2
2018-05-15T07:05:43.595Z,1002.2
2018-05-15T07:06:44.993Z,1002.2
2018-05-15T07:07:46.453Z,1002.2
2018-05-15T07:08:47.789Z,1002.2
2018-05-15T07:09:49.181Z,1002.2
2018-05-15T07:10:50.580Z,1002.2
2018-05-15T07:11:51.974Z,1002.2
2018-05-15T07:12:53.377Z,1002.2
2018-05-15T07:13:54.776Z,1002.2
2018-05-15T07:14:56.173Z,1002.2
2018-05-15T07:15:57.582Z,1002.2
2018-05-15T07:16:58.981Z,1002.2
2018-05-15T07:18:00.382Z,1002.2
2018-05-15T07:19:01.773Z,1002.2
2018-05-15T07:20:03.171Z,1002.2
2018-05-15T07:21:04.569Z,1002.1
2018-05-15T07:22:05.973Z,1002.2
2018-05-15T07:23:07.370Z,1002.2
2018-05-15T07:24:08.764Z,1002.2
2018-05-15T07:25:10.163Z,1002.2
2018-05-15T07:26:11.564Z,1002.2
2018-05-15T07:27:12.963Z,1002.2
2018-05-15T07:28:14.364Z,1002.2
2018-05-15T07:29:15.763Z,1002.2
2018-05-15T07:30:17.184Z,1002.2
2018-05-15T07:31:18.580Z,1002.3
2018-05-15T07:32:19.977Z,1002.3
2018-05-15T07:33:21.375Z,1002.3
2018-05-15T07:34:22.785Z,1002.3
2018-05-15T07:35:24.183Z,1002.3
2018-05-15T07:36:25.637Z,1002.3
2018-05-15T07:37:27.064Z,1002.3
2018-05-15T07:38:28.463Z,1002.3
2018-05-15T07:39:29.906Z,1002.3
2018-05-15T07:40:31.306Z,1002.3
2018-05-15T07:41:32.705Z,1002.3
2018-05-15T07:42:34.106Z,1002.3
2018-05-15T07:43:35.505Z,1002.3
2018-05-15T07:44:36.903Z,1002.3
2018-05-15T07:45:38.299Z,1002.3
2018-05-15T07:46:39.701Z,1002.3
2018-05-15T07:47:41.105Z,1002.3
2018-05-15T07:48:42.502Z,1002.4
2018-05-15T07:49:43.902Z,1002.3
2018-05-15T07:50:45.307Z,1002.3
2018-05-15T07:51:46.701Z,1002.3
2018-05-15T07:52:48.099Z,1002.3
2018-05-15T07:53:49.495Z,1002.3
2018-05-15T07:54:50.895Z,1002.3
2018-05-15T07:55:52.297Z,1002.4
2018-05-15T07:56:53.695Z,1002.4
2018-05-15T07:57:55.097Z,1002.4
2018-05-15T07:58:56.492Z,1002.4
2018-05-15T07:59:57.913Z,1002.4
2018-05-15T08:00:59.308Z,1002.4
2018-05-15T08:02:00.775Z,1002.4
2018-05-15T08:03:02.110Z,1002.4
2018-05-15T08:04:03.516Z,1002.4
2018-05-15T08:05:04.909Z,1002.4
2018-05-15T08:06:06.307Z,1002.3
2018-05-15T08:07:07.708Z,1002.4
2018-05-15T08:08:09.106Z,1002.4
2018-05-15T08:09:10.517Z,1002.4
2018-05-15T08:10:11.903Z,1002.4
2018-05-15T08:11:13.303Z,1002.4
2018-05-15T08:12:14.706Z,1002.4
2018-05-15T08:13:16.107Z,1002.5
2018-05-15T08:14:17.507Z,1002.5
2018-05-15T08:15:18.904Z,1002.4
2018-05-15T08:16:20.381Z,1002.5
2018-05-15T08:17:21.700Z,1002.5
2018-05-15T08:18:23.100Z,1002.5
2018-05-15T08:19:24.504Z,1002.5
2018-05-15T08:20:25.909Z,1002.5
2018-05-15T08:21:27.295Z,1002.5
2018-05-15T08:22:28.700Z,1002.4
2018-05-15T08:23:30.097Z,1002.5
2018-05-15T08:24:31.505Z,1002.5
2018-05-15T08:25:32.916Z,1002.5
2018-05-15T08:26:34.326Z,1002.5
2018-05-15T08:27:35.715Z,1002.5
2018-05-15T08:28:37.126Z,1002.5
2018-05-15T08:29:38.530Z,1002.5
2018-05-15T08:30:39.926Z,1002.5
2018-05-15T08:31:41.327Z,1002.5
2018-05-15T08:32:42.733Z,1002.5
2018-05-15T08:33:44.134Z,1002.5
2018-05-15T08:34:45.533Z,1002.5
2018-05-15T08:35:46.933Z,1002.5
2018-05-15T08:36:48.329Z,1002.5
2018-05-15T08:37:49.732Z,1002.5
2018-05-15T08:38:51.127Z,1002.5
2018-05-15T08:39:52.536Z,1002.5
2018-05-15T08:40:53.933Z,1002.5
2018-05-15T08:41:55.331Z,1002.5
2018-05-15T08:42:56.729Z,1002.5
2018-05-15T08:43:58.134Z,1002.5
2018-05-15T08:44:59.536Z,1002.5
2018-05-15T08:46:00.937Z,1002.5
2018-05-15T08:47:02.338Z,1002.5
2018-05-15T08:48:03.738Z,1002.5
2018-05-15T08:49:05.140Z,1002.5
2018-05-15T08:50:06.537Z,1002.5
2018-05-15T08:51:07.942Z,1002.4
2018-05-15T08:52:09.343Z,1002.5
2018-05-15T08:53:10.753Z,1002.5
2018-05-15T08:54:12.181Z,1002.4
2018-05-15T08:55:13.583Z,1002.5
2018-05-15T08:56:14.983Z,1002.5
2018-05-15T08:57:16.382Z,1002.4
2018-05-15T08:58:17.787Z,1002.5
2018-05-15T08:59:19.186Z,1002.4
2018-05-15T09:00:20.590Z,1002.5
2018-05-15T09:01:21.993Z,1002.4
2018-05-15T09:02:23.398Z,1002.4
2018-05-15T09:03:24.794Z,1002.4
2018-05-15T09:04:26.201Z,1002.4
2018-05-15T09:05:27.609Z,1002.5
2018-05-15T09:06:29.043Z,1002.4
2018-05-15T09:07:30.512Z,1002.4
2018-05-15T09:08:31.913Z,1002.4
2018-05-15T09:09:33.311Z,1002.3
2018-05-15T09:10:34.711Z,1002.4
2018-05-15T09:11:36.110Z,1002.3
2018-05-15T09:12:37.529Z,1002.3
2018-05-15T09:13:38.904Z,1002.3
2018-05-15T09:14:40.307Z,1002.3
2018-05-15T09:15:41.709Z,1002.4
2018-05-15T09:16:43.116Z,1002.4
2018-05-15T09:17:44.513Z,1002.3
2018-05-15T09:18:45.920Z,1002.4
2018-05-15T09:19:47.322Z,1002.3
2018-05-15T09:20:48.721Z,1002.4
2018-05-15T09:21:50.128Z,1002.4
2018-05-15T09:22:51.533Z,1002.4
2018-05-15T09:23:52.933Z,1002.4
2018-05-15T09:24:54.333Z,1002.4
2018-05-15T09:25:55.741Z,1002.4
2018-05-15T09:26:57.144Z,1002.5
2018-05-15T09:27:58.549Z,1002.5
2018-05-15T09:28:59.959Z,1002.5
2018-05-15T09:30:01.361Z,1002.5
2018-05-15T09:31:02.788Z,1002.5
2018-05-15T09:32:04.190Z,1002.5
2018-05-15T09:33:05.589Z,1002.5
2018-05-15T09:34:06.989Z,1002.6
2018-05-15T09:35:08.391Z,1002.5
2018-05-15T09:36:09.800Z,1002.5
2018-05-15T09:37:11.200Z,1002.5
2018-05-15T09:38:12.651Z,1002.5
2018-05-15T09:39:14.057Z,1002.5
2018-05-15T09:40:15.460Z,1002.5
2018-05-15T09:41:16.859Z,1002.5
2018-05-15T09:42:18.258Z,1002.5
2018-05-15T09:43:19.661Z,1002.5
2018-05-15T09:44:21.065Z,1002.5
2018-05-15T09:45:22.469Z,1002.5
2018-05-15T09:46:23.874Z,1002.5
2018-05-15T09:47:25.272Z,1002.5
2018-05-15T09:48:26.672Z,1002.5
2018-05-15T09:49:28.073Z,1002.5
2018-05-15T09:50:29.479Z,1002.5
2018-05-15T09:51:30.969Z,1002.5
2018-05-15T09:52:32.385Z,1002.5
2018-05-15T09:53:33.783Z,1002.5
2018-05-15T09:54:35.185Z,1002.5
2018-05-15T09:55:36.585Z,1002.5
2018-05-15T09:56:38.006Z,1002.5
2018-05-15T09:57:39.407Z,1002.4
2018-05-15T09:58:40.812Z,1002.5
2018-05-15T09:59:42.223Z,1002.4
2018-05-15T10:00:43.615Z,1002.4
2018-05-15T10:01:45.016Z,1002.4
2018-05-15T10:02:46.417Z,1002.4
2018-05-15T10:03:47.825Z,1002.4
2018-05-15T10:04:49.228Z,1002.4
2018-05-15T10:05:50.626Z,1002.4
2018-05-15T10:06:52.036Z,1002.4
2018-05-15T10:07:53.486Z,1002.4
2018-05-15T10:08:54.845Z,1002.4
2018-05-15T10:09:56.245Z,1002.4
2018-05-15T10:10:57.648Z,1002.4
2018-05-15T10:11:59.054Z,1002.4
2018-05-15T10:13:00.455Z,1002.4
2018-05-15T10:14:01.860Z,1002.4
2018-05-15T10:15:03.265Z,1002.4
2018-05-15T10:16:04.669Z,1002.4
2018-05-15T10:17:06.079Z,1002.4
2018-05-15T10:18:07.481Z,1002.4
2018-05-15T10:19:08.885Z,1002.3
2018-05-15T10:20:10.289Z,1002.4
2018-05-15T10:21:11.701Z,1002.4
2018-05-15T10:22:13.103Z,1002.4
2018-05-15T10:23:14.505Z,1002.3
2018-05-15T10:24:15.908Z,1002.3
2018-05-15T10:25:17.315Z,1002.4
2018-05-15T10:26:18.730Z,1002.4
2018-05-15T10:27:20.126Z,1002.4
2018-05-15T10:28:21.532Z,1002.3
2018-05-15T10:29:22.935Z,1002.3
2018-05-15T10:30:24.336Z,1002.3
2018-05-15T10:31:25.739Z,1002.3
2018-05-15T10:32:27.148Z,1002.3
2018-05-15T10:33:28.545Z,1002.3
2018-05-15T10:34:29.953Z,1002.3
2018-05-15T10:35:31.360Z,1002.3
2018-05-15T10:36:32.824Z,1002.3
2018-05-15T10:37:34.299Z,1002.3
2018-05-15T10:38:35.704Z,1002.3
2018-05-15T10:39:37.125Z,1002.2
2018-05-15T10:40:38.526Z,1002.2
2018-05-15T10:41:39.932Z,1002.2
2018-05-15T10:42:41.337Z,1002.2
2018-05-15T10:43:42.737Z,1002.2
2018-05-15T10:44:44.141Z,1002.2
2018-05-15T10:45:45.555Z,1002.2
2018-05-15T10:46:46.956Z,1002.2
2018-05-15T10:47:48.361Z,1002.2
2018-05-15T10:48:49.767Z,1002.2
2018-05-15T10:49:51.171Z,1002.2
2018-05-15T10:50:52.665Z,1002.2
2018-05-15T10:51:53.980Z,1002.2
2018-05-15T10:52:55.384Z,1002.2
2018-05-15T10:53:56.790Z,1002.2
2018-05-15T10:54:58.213Z,1002.2
2018-05-15T10:55:59.619Z,1002.1
2018-05-15T10:57:01.024Z,1002.2
2018-05-15T10:58:02.429Z,1002.2
2018-05-15T10:59:03.836Z,1002.2
2018-05-15T11:00:05.238Z,1002.2
2018-05-15T11:01:06.643Z,1002.3
2018-05-15T11:02:08.060Z,1002.2
2018-05-15T11:03:09.468Z,1002.2
2018-05-15T11:04:10.875Z,1002.2
2018-05-15T11:05:12.302Z,1002.3
2018-05-15T11:06:13.714Z,1002.3
2018-05-15T11:07:15.113Z,1002.3
2018-05-15T11:08:16.524Z,1002.2
2018-05-15T11:09:17.941Z,1002.2
2018-05-15T11:10:19.336Z,1002.2
2018-05-15T11:11:20.746Z,1002.2
2018-05-15T11:12:22.151Z,1002.2
2018-05-15T11:13:23.558Z,1002.2
2018-05-15T11:14:24.968Z,1002.2
2018-05-15T11:15:26.374Z,1002.2
2018-05-15T11:16:27.789Z,1002.2
2018-05-15T11:17:29.205Z,1002.2
2018-05-15T11:18:30.616Z,1002.2
2018-05-15T11:19:32.043Z,1002.2
2018-05-15T11:20:33.447Z,1002.2
2018-05-15T11:21:34.856Z,1002.2
2018-05-15T11:22:36.395Z,1002.2
2018-05-15T11:23:37.804Z,1002.2
2018-05-15T11:24:39.292Z,1002.2
2018-05-15T11:25:40.628Z,1002.2
2018-05-15T11:26:42.038Z,1002.2
2018-05-15T11:27:43.460Z,1002.2
2018-05-15T11:28:44.932Z,1002.2
2018-05-15T11:29:46.330Z,1002.1
2018-05-15T11:30:47.824Z,1002.1
2018-05-15T11:31:49.227Z,1002.1
2018-05-15T11:32:50.631Z,1002.1
2018-05-15T11:33:52.037Z,1002.1
2018-05-15T11:34:53.443Z,1002.1
2018-05-15T11:35:54.870Z,1002.1
2018-05-15T11:36:56.254Z,1002.0
2018-05-15T11:37:57.665Z,1002.0
2018-05-15T11:38:59.070Z,1002.0
2018-05-15T11:40:00.481Z,1002.0
2018-05-15T11:41:01.883Z,1002.0
2018-05-15T11:42:03.290Z,1002.0
2018-05-15T11:43:04.695Z,1002.0
2018-05-15T11:44:06.098Z,1002.0
2018-05-15T11:45:07.509Z,1002.0
2018-05-15T11:46:08.915Z,1002.0
2018-05-15T11:47:10.322Z,1002.0
2018-05-15T11:48:12.054Z,1002.0
2018-05-15T11:49:13.710Z,1002.0
2018-05-15T11:50:15.238Z,1002.0
2018-05-15T11:51:16.593Z,1002.0
2018-05-15T11:52:18.059Z,1002.0
2018-05-15T11:53:18.979Z,1002.0
2018-05-15T11:54:20.158Z,1002.1
2018-05-15T11:55:21.561Z,1002.0
2018-05-15T11:56:23.055Z,1002.1
2018-05-15T11:57:24.373Z,1002.0
2018-05-15T11:58:25.780Z,1002.0
2018-05-15T11:59:27.189Z,1002.0
2018-05-15T12:00:28.597Z,1002.0
2018-05-15T12:01:30.005Z,1002.0
2018-05-15T12:02:31.471Z,1002.0
2018-05-15T12:03:32.810Z,1002.1
2018-05-15T12:04:34.214Z,1002.1
2018-05-15T12:05:35.620Z,1002.1
2018-05-15T12:06:37.047Z,1002.1
2018-05-15T12:07:38.498Z,1002.1
2018-05-15T12:08:39.933Z,1002.1
2018-05-15T12:09:41.333Z,1002.1
2018-05-15T12:10:42.828Z,1002.1
2018-05-15T12:11:44.138Z,1002.1
2018-05-15T12:12:45.552Z,1002.2
2018-05-15T12:13:46.951Z,1002.2
2018-05-15T12:14:48.356Z,1002.2
2018-05-15T12:15:49.760Z,1002.2
2018-05-15T12:16:51.170Z,1002.2
2018-05-15T12:17:52.565Z,1002.3
2018-05-15T12:18:53.973Z,1002.2
2018-05-15T12:19:55.376Z,1002.1
2018-05-15T12:20:56.782Z,1002.1
2018-05-15T12:21:58.188Z,1002.1
2018-05-15T12:22:59.595Z,1002.1
2018-05-15T12:24:00.995Z,1002.1
2018-05-15T12:25:02.402Z,1002.1
2018-05-15T12:26:03.799Z,1002.1
2018-05-15T12:27:05.213Z,1002.1
2018-05-15T12:28:06.624Z,1002.0
2018-05-15T12:29:08.019Z,1002.1
2018-05-15T12:30:09.428Z,1002.0
2018-05-15T12:31:10.830Z,1002.0
2018-05-15T12:32:12.238Z,1002.1
2018-05-15T12:33:13.644Z,1002.1
2018-05-15T12:34:15.045Z,1002.1
2018-05-15T12:35:16.448Z,1002.1
2018-05-15T12:36:17.880Z,1002.1
2018-05-15T12:37:19.285Z,1002.0
2018-05-15T12:38:20.682Z,1002.1
2018-05-15T12:39:22.086Z,1002.1
2018-05-15T12:40:23.493Z,1002.0
2018-05-15T12:41:24.981Z,1002.0
2018-05-15T12:42:26.302Z,1002.1
2018-05-15T12:43:27.716Z,1002.0
2018-05-15T12:44:29.122Z,1002.2
2018-05-15T12:45:30.527Z,1002.2